Time;durP1;ratioP1;P1;durP2;ratioP2;P2;SDS_P1;SDS_P2;PMS_P1;PMS_P2;Temp;Humidity;BMP_temperature;BMP_pressure;BME280_temperature;BME280_humidity;BME280_pressure;Samples;Min_cycle;Max_cycle;Signal;HPM_P1;HPM_P2
2022/12/07 00:01:32;;;;;;;1.20;0.70;;;;;;;3.15;100.00;100458.69;5002291;28;20587;-54
2022/12/07 00:04:05;;;;;;;0.90;0.90;;;;;;;3.05;100.00;100450.75;5024693;28;20534;-54
2022/12/07 00:06:34;;;;;;;1.80;1.70;;;;;;;3.09;100.00;100450.75;5023995;28;20554;-54
2022/12/07 00:09:00;;;;;;;1.43;1.03;;;;;;;3.13;100.00;100447.28;5017717;28;20550;-53
2022/12/07 00:11:27;;;;;;;1.17;1.13;;;;;;;2.97;100.00;100446.34;5018429;28;20519;-54
2022/12/07 00:13:59;;;;;;;1.93;1.67;;;;;;;3.07;100.00;100441.13;5024221;28;20492;-54
2022/12/07 00:16:28;;;;;;;0.70;0.70;;;;;;;3.03;100.00;100439.38;5024365;28;20863;-53
2022/12/07 00:18:55;;;;;;;0.40;0.30;;;;;;;3.02;100.00;100430.63;5023313;28;20478;-53
2022/12/07 00:21:24;;;;;;;4.60;1.00;;;;;;;2.89;100.00;100429.69;5019117;28;21004;-53
2022/12/07 00:23:52;;;;;;;2.97;1.00;;;;;;;3.02;100.00;100428.00;5030464;28;20944;-54
2022/12/07 00:26:22;;;;;;;1.03;0.93;;;;;;;3.18;100.00;100428.94;5017475;28;20453;-54
2022/12/07 00:28:51;;;;;;;4.13;1.80;;;;;;;3.21;100.00;100429.81;5021009;28;20556;-54
2022/12/07 00:31:20;;;;;;;1.17;1.17;;;;;;;3.15;100.00;100426.25;5023842;28;20464;-54
2022/12/07 00:33:47;;;;;;;1.03;1.03;;;;;;;3.38;100.00;100427.22;5020676;28;20491;-54
2022/12/07 00:36:16;;;;;;;4.30;1.63;;;;;;;3.52;100.00;100419.38;5016845;28;20455;-54
2022/12/07 00:38:50;;;;;;;2.20;1.70;;;;;;;3.67;100.00;100411.50;5019846;28;20576;-54
2022/12/07 00:41:22;;;;;;;1.43;1.43;;;;;;;3.58;100.00;100405.38;5029999;28;20510;-54
2022/12/07 00:43:50;;;;;;;1.70;1.13;;;;;;;3.50;100.00;100408.88;5018382;28;20452;-54
2022/12/07 00:46:18;;;;;;;1.37;1.27;;;;;;;3.33;100.00;100397.44;5027433;28;20513;-54
2022/12/07 00:48:45;;;;;;;2.10;1.23;;;;;;;3.19;100.00;100399.16;5017528;28;20499;-54
2022/12/07 00:51:13;;;;;;;0.97;0.97;;;;;;;3.18;100.00;100394.78;5023417;28;20457;-54
2022/12/07 00:53:40;;;;;;;0.70;0.70;;;;;;;3.21;100.00;100387.78;5022966;28;20518;-54
2022/12/07 00:56:23;;;;;;;0.53;0.50;;;;;;;3.24;100.00;100393.03;5016676;28;20486;-54
2022/12/07 00:58:55;;;;;;;9.57;1.10;;;;;;;3.32;100.00;100393.06;5016625;28;20476;-53
2022/12/07 01:01:23;;;;;;;1.33;1.23;;;;;;;3.75;100.00;100396.63;5020338;28;20467;-54
2022/12/07 01:03:50;;;;;;;3.90;1.37;;;;;;;3.67;100.00;100395.75;5023308;28;20954;-54
2022/12/07 01:06:18;;;;;;;2.50;2.00;;;;;;;3.52;100.00;100398.34;5019695;28;20456;-54
2022/12/07 01:08:44;;;;;;;3.73;2.10;;;;;;;3.43;100.00;100393.09;5016603;28;20533;-54
2022/12/07 01:11:17;;;;;;;1.27;1.20;;;;;;;3.38;100.00;100395.69;5019458;28;20463;-54
2022/12/07 01:13:44;;;;;;;2.27;1.10;;;;;;;3.35;100.00;100390.44;5023081;28;20941;-54
2022/12/07 01:16:13;;;;;;;0.63;0.60;;;;;;;3.43;100.00;100391.34;5021472;28;20459;-54
2022/12/07 01:18:39;;;;;;;0.27;0.27;;;;;;;3.34;100.00;100385.19;5023875;28;20481;-54
2022/12/07 01:21:10;;;;;;;1.00;0.80;;;;;;;3.30;100.00;100389.56;5021984;28;20975;-53
2022/12/07 01:23:37;;;;;;;1.63;1.53;;;;;;;3.42;100.00;100384.31;5016464;28;20440;-54
2022/12/07 01:26:07;;;;;;;2.20;1.07;;;;;;;3.27;100.00;100372.03;5016325;28;20871;-54
2022/12/07 01:28:33;;;;;;;3.30;1.10;;;;;;;3.21;100.00;100385.16;5016752;28;20471;-54
2022/12/07 01:31:16;;;;;;;5.37;0.70;;;;;;;3.13;100.00;100394.75;5015710;28;20483;-53
2022/12/07 01:33:45;;;;;;;0.70;0.70;;;;;;;3.05;100.00;100388.63;5019649;28;21021;-54
2022/12/07 01:36:16;;;;;;;1.13;1.10;;;;;;;2.87;100.00;100378.91;5022562;28;20506;-54
2022/12/07 01:38:44;;;;;;;0.60;0.60;;;;;;;3.03;100.00;100385.13;5019482;28;20867;-54
2022/12/07 01:41:11;;;;;;;0.60;0.50;;;;;;;3.03;100.00;100387.75;5039855;28;21006;-54
2022/12/07 01:44:12;;;;;;;0.63;0.63;;;;;;;3.00;100.00;100390.31;5017883;28;20460;-54
2022/12/07 01:46:39;;;;;;;0.40;0.40;;;;;;;3.05;100.00;100395.63;5018235;28;21162;-53
2022/12/07 01:49:10;;;;;;;0.70;0.70;;;;;;;2.97;100.00;100387.69;4998042;28;20472;-54
2022/12/07 01:51:39;;;;;;;1.37;0.60;;;;;;;2.96;100.00;100397.31;5019463;28;20814;-54
2022/12/07 01:54:07;;;;;;;4.47;1.30;;;;;;;3.09;100.00;100390.38;5022681;28;20503;-54
2022/12/07 01:56:34;;;;;;;2.83;1.50;;;;;;;3.17;100.00;100387.78;5020165;28;20460;-54
2022/12/07 01:59:00;;;;;;;3.30;3.03;;;;;;;3.14;100.00;100386.00;5015562;28;20506;-54
2022/12/07 02:01:28;;;;;;;0.70;0.70;;;;;;;3.23;100.00;100383.41;5018110;28;20928;-54
2022/12/07 02:03:55;;;;;;;0.73;0.73;;;;;;;3.21;100.00;100376.41;5022531;28;20535;-54
2022/12/07 02:06:25;;;;;;;1.27;1.17;;;;;;;3.27;100.00;100369.41;5020377;28;20451;-54
2022/12/07 02:08:52;;;;;;;0.30;0.30;;;;;;;3.27;100.00;100365.91;5016138;28;20467;-54
2022/12/07 02:11:19;;;;;;;1.50;1.50;;;;;;;3.29;100.00;100369.44;5018166;28;20969;-54
2022/12/07 02:13:47;;;;;;;0.40;0.40;;;;;;;3.24;100.00;100371.16;5023202;28;20566;-54
2022/12/07 02:16:21;;;;;;;2.50;2.40;;;;;;;3.41;100.00;100363.28;5021293;28;20513;-54
2022/12/07 02:19:01;;;;;;;1.13;1.13;;;;;;;3.39;100.00;100362.41;5009257;28;20476;-53
2022/12/07 02:22:01;;;;;;;1.80;1.70;;;;;;;3.37;100.00;100362.41;5022449;28;20450;-54
2022/12/07 02:24:56;;;;;;;0.30;0.30;;;;;;;3.47;100.00;100368.56;5022712;28;20444;-54
2022/12/07 02:27:36;;;;;;;1.23;1.23;;;;;;;3.50;100.00;100360.69;5019107;28;20513;-54
2022/12/07 02:30:04;;;;;;;0.97;0.80;;;;;;;3.52;100.00;100361.56;5015594;28;20454;-54
2022/12/07 02:32:56;;;;;;;1.63;1.53;;;;;;;3.54;100.00;100352.81;5016367;28;20463;-54
2022/12/07 02:35:45;;;;;;;2.10;2.00;;;;;;;3.58;100.00;100355.47;5018483;28;20569;-54
2022/12/07 02:38:18;;;;;;;0.40;0.37;;;;;;;3.61;100.00;100356.31;5016265;28;20491;-54
2022/12/07 02:40:49;;;;;;;1.83;1.73;;;;;;;3.60;100.00;100351.94;5028487;28;20506;-55
2022/12/07 02:43:27;;;;;;;0.93;0.93;;;;;;;3.54;100.00;100352.81;5003447;28;20484;-56
2022/12/07 02:45:58;;;;;;;1.93;0.90;;;;;;;3.58;100.00;100337.94;5022259;28;20455;-54
2022/12/07 02:48:26;;;;;;;5.20;0.77;;;;;;;3.67;100.00;100351.06;5017933;28;20479;-55
2022/12/07 02:50:53;;;;;;;1.87;1.67;;;;;;;3.74;100.00;100350.19;5022012;28;20460;-54
2022/12/07 02:53:33;;;;;;;1.53;1.20;;;;;;;3.87;100.00;100348.44;5019417;28;20460;-55
2022/12/07 02:56:04;;;;;;;0.73;0.73;;;;;;;3.98;100.00;100345.81;5018927;28;20456;-55
2022/12/07 02:58:43;;;;;;;0.83;0.83;;;;;;;3.87;100.00;100337.94;5019109;28;20472;-55
2022/12/07 03:01:34;;;;;;;0.67;0.67;;;;;;;3.75;100.00;100340.56;5020531;28;20447;-55
2022/12/07 03:04:21;;;;;;;1.13;0.97;;;;;;;3.95;100.00;100340.53;5018895;28;20491;-55
2022/12/07 03:07:18;;;;;;;0.97;0.97;;;;;;;4.10;100.00;100336.13;5018650;28;20507;-55
2022/12/07 03:09:57;;;;;;;0.73;0.73;;;;;;;4.14;100.00;100334.38;5019838;28;20467;-56
2022/12/07 03:12:58;;;;;;;0.73;0.67;;;;;;;4.04;100.00;100338.78;5019975;28;20447;-56
2022/12/07 03:15:45;;;;;;;1.80;1.00;;;;;;;4.23;100.00;100336.97;5013658;28;20487;-55
2022/12/07 03:18:16;;;;;;;1.17;1.13;;;;;;;4.23;100.00;100330.84;5029845;28;20984;-54
2022/12/07 03:20:45;;;;;;;0.63;0.57;;;;;;;4.29;100.00;100328.22;5021170;28;20447;-56
2022/12/07 03:23:14;;;;;;;0.73;0.73;;;;;;;4.31;100.00;100329.97;5018408;28;20489;-55
2022/12/07 03:25:46;;;;;;;0.73;0.70;;;;;;;4.35;100.00;100330.81;5021764;28;20449;-54
2022/12/07 03:28:18;;;;;;;3.10;0.70;;;;;;;4.34;100.00;100327.31;5025536;28;20469;-55
2022/12/07 03:31:00;;;;;;;1.20;1.10;;;;;;;4.29;100.00;100328.22;5023704;28;20447;-55
2022/12/07 03:33:37;;;;;;;0.40;0.30;;;;;;;4.28;100.00;100334.34;5024476;28;20455;-56
2022/12/07 03:36:14;;;;;;;0.67;0.67;;;;;;;4.35;100.00;100334.31;5025071;28;20456;-54
2022/12/07 03:38:47;;;;;;;1.37;1.07;;;;;;;4.34;100.00;100337.84;5021713;28;20487;-56
2022/12/07 03:41:25;;;;;;;0.50;0.47;;;;;;;4.34;100.00;100329.94;5043142;28;20444;-56
2022/12/07 03:43:55;;;;;;;2.00;1.90;;;;;;;4.37;100.00;100329.94;5018810;28;20925;-55
2022/12/07 03:46:24;;;;;;;0.40;0.40;;;;;;;4.35;100.00;100333.44;5029192;28;21033;-56
2022/12/07 03:49:02;;;;;;;1.67;1.57;;;;;;;4.30;100.00;100328.22;5017885;28;20864;-56
2022/12/07 03:51:48;;;;;;;0.63;0.63;;;;;;;4.39;100.00;100328.19;5022683;28;20452;-54
2022/12/07 03:54:19;;;;;;;1.23;1.23;;;;;;;4.49;100.00;100323.75;5024589;28;20503;-56
2022/12/07 03:56:47;;;;;;;1.60;1.50;;;;;;;4.47;100.00;100330.78;5023696;28;20817;-56
2022/12/07 03:59:15;;;;;;;0.60;0.50;;;;;;;4.39;100.00;100332.59;5017313;28;20518;-56
2022/12/07 04:01:52;;;;;;;0.80;0.80;;;;;;;4.37;100.00;100331.69;5018493;28;20457;-55
2022/12/07 04:04:18;;;;;;;3.10;2.20;;;;;;;4.52;100.00;100328.13;5018672;28;20443;-55
2022/12/07 04:06:45;;;;;;;4.83;1.23;;;;;;;4.45;100.00;100322.91;5017586;28;20460;-56
2022/12/07 04:09:11;;;;;;;4.00;1.07;;;;;;;4.64;100.00;100326.31;5023265;28;20473;-55
2022/12/07 04:11:38;;;;;;;1.63;1.53;;;;;;;4.68;100.00;100329.84;5006644;28;20481;-56
2022/12/07 04:14:19;;;;;;;2.10;2.00;;;;;;;4.71;100.00;100332.47;5018784;28;20495;-56
2022/12/07 04:16:56;;;;;;;0.40;0.40;;;;;;;4.74;100.00;100324.53;5021912;28;20460;-55
2022/12/07 04:19:24;;;;;;;2.67;2.57;;;;;;;4.82;100.00;100327.16;5019376;28;20477;-55
2022/12/07 04:21:51;;;;;;;1.00;0.90;;;;;;;4.83;100.00;100324.50;5024047;28;21313;-56
2022/12/07 04:24:18;;;;;;;1.73;0.87;;;;;;;4.88;100.00;100325.34;5022552;28;20452;-56
2022/12/07 04:26:45;;;;;;;0.50;0.50;;;;;;;4.96;100.00;100315.66;5017713;28;20494;-56
2022/12/07 04:29:13;;;;;;;1.60;1.60;;;;;;;5.01;100.00;100310.34;5018481;28;20556;-55
2022/12/07 04:31:40;;;;;;;1.53;1.43;;;;;;;4.93;100.00;100315.66;5024170;28;20826;-56
2022/12/07 04:34:07;;;;;;;0.83;0.83;;;;;;;4.93;100.00;100314.78;5023109;28;20868;-55
2022/12/07 04:36:34;;;;;;;1.90;1.60;;;;;;;5.04;100.00;100319.13;5017017;28;20497;-55
2022/12/07 04:39:01;;;;;;;1.33;1.23;;;;;;;4.98;100.00;100321.78;5019234;28;20530;-56
2022/12/07 04:41:27;;;;;;;0.50;0.50;;;;;;;4.97;100.00;100321.81;5030569;28;20466;-56
2022/12/07 04:44:00;;;;;;;1.27;1.13;;;;;;;4.95;100.00;100320.94;5017280;28;20452;-55
2022/12/07 04:46:28;;;;;;;3.13;1.20;;;;;;;5.07;100.00;100318.22;5017766;28;20944;-55
2022/12/07 04:48:55;;;;;;;1.90;1.80;;;;;;;5.12;100.00;100320.84;5016640;28;21062;-55
2022/12/07 04:51:27;;;;;;;1.90;1.20;;;;;;;5.11;100.00;100321.72;5022144;28;20491;-56
2022/12/07 04:53:55;;;;;;;0.93;0.93;;;;;;;5.08;100.00;100313.84;5023547;28;20470;-56
2022/12/07 04:56:22;;;;;;;1.43;1.37;;;;;;;5.11;100.00;100313.81;5019292;28;20452;-55
2022/12/07 04:58:49;;;;;;;1.33;1.20;;;;;;;5.12;100.00;100319.09;5016325;28;20564;-56
2022/12/07 05:01:16;;;;;;;2.77;2.57;;;;;;;5.07;100.00;100310.31;5020622;28;20515;-55
2022/12/07 05:03:43;;;;;;;1.27;1.17;;;;;;;5.15;100.00;100310.28;5023134;28;20451;-55
2022/12/07 05:06:11;;;;;;;1.93;1.43;;;;;;;5.08;100.00;100311.22;5019517;28;20455;-54
2022/12/07 05:08:39;;;;;;;1.80;1.70;;;;;;;5.14;100.00;100308.53;5016192;28;20900;-56
2022/12/07 05:11:06;;;;;;;0.83;0.83;;;;;;;5.20;100.00;100309.34;5020377;28;20559;-55
2022/12/07 05:13:33;;;;;;;23.47;2.70;;;;;;;5.26;100.00;100309.31;5023534;28;20456;-56
2022/12/07 05:16:00;;;;;;;0.90;0.90;;;;;;;5.33;100.00;100308.38;5019290;28;20491;-56
2022/12/07 05:18:26;;;;;;;3.43;1.30;;;;;;;5.22;100.00;100306.72;5025550;28;20480;-56
2022/12/07 05:20:53;;;;;;;2.30;2.20;;;;;;;5.16;100.00;100312.03;5020231;28;20806;-55
2022/12/07 05:23:19;;;;;;;1.50;1.40;;;;;;;5.16;100.00;100314.66;5016710;28;20455;-55
2022/12/07 05:25:46;;;;;;;3.67;1.80;;;;;;;5.20;100.00;100311.97;5019292;28;21069;-55
2022/12/07 05:28:13;;;;;;;4.37;1.70;;;;;;;5.23;100.00;100319.03;5009442;28;20471;-55
2022/12/07 05:30:39;;;;;;;2.90;2.60;;;;;;;5.22;100.00;100317.28;5018753;28;20453;-55
2022/12/07 05:33:05;;;;;;;6.60;2.53;;;;;;;5.21;100.00;100311.13;5022862;28;20503;-55
2022/12/07 05:35:32;;;;;;;4.20;1.00;;;;;;;5.29;100.00;100313.69;5020208;28;20495;-54
2022/12/07 05:37:58;;;;;;;1.10;1.10;;;;;;;5.25;100.00;100317.25;5015740;28;21078;-55
2022/12/07 05:40:24;;;;;;;4.27;2.07;;;;;;;5.21;100.00;100319.03;5040413;28;20446;-55
2022/12/07 05:42:51;;;;;;;1.50;1.40;;;;;;;5.23;100.00;100321.66;5026325;28;20452;-55
2022/12/07 05:45:17;;;;;;;1.70;1.60;;;;;;;5.18;100.00;100312.88;5020320;28;20951;-55
2022/12/07 05:47:44;;;;;;;1.10;1.03;;;;;;;5.20;100.00;100321.66;5022168;28;20517;-55
2022/12/07 05:50:10;;;;;;;3.80;1.07;;;;;;;5.23;100.00;100316.38;5020816;28;20451;-56
2022/12/07 05:52:37;;;;;;;1.00;0.60;;;;;;;5.28;100.00;100312.81;5015756;28;20546;-55
2022/12/07 05:55:03;;;;;;;2.63;2.43;;;;;;;5.23;100.00;100306.72;5017103;28;20500;-56
2022/12/07 05:57:30;;;;;;;2.20;1.30;;;;;;;5.27;100.00;100320.75;5022214;28;20487;-55
2022/12/07 05:59:56;;;;;;;2.47;2.27;;;;;;;5.32;100.00;100324.22;5021140;28;20526;-55
2022/12/07 06:02:22;;;;;;;2.50;2.00;;;;;;;5.29;100.00;100318.97;5015897;28;20455;-55
2022/12/07 06:04:49;;;;;;;4.20;1.67;;;;;;;5.28;100.00;100319.84;5016814;28;20456;-56
2022/12/07 06:07:16;;;;;;;3.10;2.07;;;;;;;5.33;100.00;100316.28;5022681;28;20479;-55
2022/12/07 06:09:43;;;;;;;1.80;1.70;;;;;;;5.29;100.00;100313.69;5021352;28;20852;-55
2022/12/07 06:14:55;;;;;;;0.80;0.77;;;;;;;5.30;100.00;100321.59;5015242;28;20504;-56
2022/12/07 06:17:22;;;;;;;2.00;1.90;;;;;;;5.31;100.00;100312.78;5028725;28;20452;-56
2022/12/07 06:19:49;;;;;;;1.87;1.80;;;;;;;5.34;100.00;100310.16;5015287;28;20480;-55
2022/12/07 06:22:16;;;;;;;1.03;1.03;;;;;;;5.31;100.00;100314.56;5025007;28;20517;-55
2022/12/07 06:24:42;;;;;;;2.30;2.10;;;;;;;5.49;100.00;100324.13;5024412;28;20535;-56
2022/12/07 06:27:09;;;;;;;2.53;2.43;;;;;;;5.45;100.00;100317.97;5017954;28;20967;-55
2022/12/07 06:29:36;;;;;;;12.23;2.27;;;;;;;5.36;100.00;100323.31;5019233;28;20524;-55
2022/12/07 06:32:03;;;;;;;2.40;1.77;;;;;;;5.41;100.00;100318.88;5023966;28;20455;-55
2022/12/07 06:34:30;;;;;;;2.37;2.27;;;;;;;5.42;100.00;100315.34;5027123;28;20456;-55
2022/12/07 06:36:56;;;;;;;2.03;1.77;;;;;;;5.39;100.00;100315.38;5022848;28;20937;-53
2022/12/07 06:39:25;;;;;;;2.10;1.90;;;;;;;5.37;100.00;100317.16;5021161;28;20922;-55
2022/12/07 06:41:53;;;;;;;1.17;1.17;;;;;;;5.35;100.00;100319.81;5033038;28;20459;-54
2022/12/07 06:44:21;;;;;;;6.23;2.20;;;;;;;5.34;100.00;100318.06;5019848;28;20455;-55
2022/12/07 06:46:49;;;;;;;6.53;1.90;;;;;;;5.40;100.00;100322.41;5030770;28;20500;-53
2022/12/07 06:49:15;;;;;;;1.83;1.67;;;;;;;5.53;100.00;100329.34;5019508;28;20475;-54
2022/12/07 06:51:43;;;;;;;3.67;1.47;;;;;;;5.43;100.00;100321.50;5022457;28;20453;-54
2022/12/07 06:54:14;;;;;;;4.37;2.83;;;;;;;5.37;100.00;100313.66;5026269;28;20503;-54
2022/12/07 06:56:41;;;;;;;10.67;1.83;;;;;;;5.36;100.00;100323.31;5023998;28;20491;-54
2022/12/07 06:59:07;;;;;;;5.43;2.30;;;;;;;5.31;100.00;100322.47;5019567;28;20471;-54
2022/12/07 07:01:35;;;;;;;2.80;2.60;;;;;;;5.40;100.00;100329.44;5021358;28;20530;-54
2022/12/07 07:04:01;;;;;;;2.00;1.17;;;;;;;5.31;100.00;100333.00;5026311;28;20595;-54
2022/12/07 07:06:28;;;;;;;4.73;3.40;;;;;;;5.30;100.00;100333.88;5024733;28;20794;-54
2022/12/07 07:08:54;;;;;;;2.67;1.77;;;;;;;5.31;100.00;100323.34;5019242;28;20482;-54
2022/12/07 07:11:20;;;;;;;2.13;2.00;;;;;;;5.32;100.00;100333.00;5020944;28;20534;-54
2022/12/07 07:13:47;;;;;;;1.87;1.77;;;;;;;5.32;100.00;100333.00;5026281;28;20452;-53
2022/12/07 07:16:13;;;;;;;3.50;3.30;;;;;;;5.36;100.00;100339.13;5024744;28;20491;-55
2022/12/07 07:18:40;;;;;;;3.50;3.30;;;;;;;5.31;100.00;100333.88;5027200;28;20977;-54
2022/12/07 07:21:09;;;;;;;2.27;1.67;;;;;;;5.25;100.00;100335.69;5025281;28;20466;-54
2022/12/07 07:23:36;;;;;;;1.40;1.33;;;;;;;5.18;100.00;100333.97;5018910;28;20513;-54
2022/12/07 07:26:02;;;;;;;5.30;3.67;;;;;;;5.11;100.00;100343.69;5020123;28;20448;-54
2022/12/07 07:28:28;;;;;;;4.90;1.90;;;;;;;5.12;100.00;100337.53;5025415;28;20474;-54
2022/12/07 07:30:55;;;;;;;3.50;3.27;;;;;;;5.10;100.00;100346.31;5025376;28;20976;-55
2022/12/07 07:33:21;;;;;;;9.00;1.87;;;;;;;5.12;100.00;100348.06;5018805;28;20458;-55
2022/12/07 07:35:48;;;;;;;2.67;2.37;;;;;;;5.12;100.00;100352.47;5018886;28;20504;-54
2022/12/07 07:38:14;;;;;;;2.33;1.57;;;;;;;5.13;100.00;100349.81;5025446;28;20484;-54
2022/12/07 07:40:41;;;;;;;4.43;1.13;;;;;;;5.05;100.00;100341.94;5027280;28;20471;-55
2022/12/07 07:43:07;;;;;;;3.40;1.93;;;;;;;4.96;100.00;100342.00;5025194;28;20460;-54
2022/12/07 07:45:34;;;;;;;1.80;1.70;;;;;;;5.09;100.00;100353.34;5007780;28;20447;-54
2022/12/07 07:48:00;;;;;;;3.70;1.90;;;;;;;4.97;100.00;100343.75;5022971;28;20476;-55
2022/12/07 07:50:26;;;;;;;1.93;1.33;;;;;;;4.91;100.00;100349.03;5024927;28;20463;-54
2022/12/07 07:52:53;;;;;;;7.03;2.03;;;;;;;4.94;100.00;100356.06;5019525;28;20459;-54
2022/12/07 07:55:19;;;;;;;3.13;2.73;;;;;;;4.93;100.00;100352.53;5018373;28;20492;-54
2022/12/07 07:57:45;;;;;;;3.47;3.23;;;;;;;4.83;100.00;100349.97;5024364;28;20477;-54
2022/12/07 08:00:18;;;;;;;4.53;3.47;;;;;;;4.72;100.00;100352.63;5024753;28;20456;-55
2022/12/07 08:02:45;;;;;;;1.93;1.80;;;;;;;4.68;100.00;100353.53;5020577;28;20456;-54
2022/12/07 08:05:13;;;;;;;2.93;2.23;;;;;;;4.67;100.00;100355.31;5018234;28;20480;-54
2022/12/07 08:07:40;;;;;;;2.70;2.60;;;;;;;4.57;100.00;100363.22;5022950;28;20502;-54
2022/12/07 08:10:09;;;;;;;1.13;1.13;;;;;;;4.53;100.00;100364.13;5024669;28;20452;-53
2022/12/07 08:13:10;;;;;;;0.97;0.87;;;;;;;4.54;100.00;100364.13;5021247;28;20874;-54
2022/12/07 08:15:27;;;;;;;3.30;3.10;;;;;;;4.47;100.00;100357.09;5017587;28;20503;-54
2022/12/07 08:17:53;;;;;;;2.57;2.10;;;;;;;4.42;100.00;100358.88;5031100;28;20476;-54
2022/12/07 08:20:20;;;;;;;2.87;2.60;;;;;;;4.41;100.00;100360.63;5018090;28;20460;-54
2022/12/07 08:22:47;;;;;;;25.13;2.23;;;;;;;4.33;100.00;100357.13;5018446;28;20530;-54
2022/12/07 08:25:13;;;;;;;2.67;1.63;;;;;;;4.26;100.00;100360.69;5018176;28;20577;-55
2022/12/07 08:27:39;;;;;;;1.50;1.00;;;;;;;4.26;100.00;100359.81;5017697;28;20452;-54
2022/12/07 08:30:07;;;;;;;1.27;1.07;;;;;;;4.42;100.00;100362.38;5023889;28;20828;-54
2022/12/07 08:32:33;;;;;;;1.67;1.00;;;;;;;4.47;100.00;100367.63;5024401;28;20452;-54
2022/12/07 08:34:59;;;;;;;8.73;3.90;;;;;;;4.49;100.00;100355.34;5018332;28;20517;-54
2022/12/07 08:37:26;;;;;;;2.13;2.00;;;;;;;4.44;100.00;100357.13;5017463;28;20511;-54
2022/12/07 08:39:52;;;;;;;8.03;3.57;;;;;;;4.45;100.00;100362.38;5037814;28;20951;-55
2022/12/07 08:42:18;;;;;;;1.67;1.53;;;;;;;4.51;100.00;100368.50;5019026;28;20456;-54
2022/12/07 08:44:45;;;;;;;3.93;3.73;;;;;;;4.56;100.00;100372.88;5018088;28;20458;-54
2022/12/07 08:47:12;;;;;;;1.60;1.53;;;;;;;4.83;100.00;100371.91;5030163;28;20460;-55
2022/12/07 08:49:42;;;;;;;1.63;1.53;;;;;;;5.13;100.00;100372.66;5018233;28;20475;-54
2022/12/07 08:52:08;;;;;;;3.80;2.93;;;;;;;5.40;100.00;100368.97;5017461;28;20445;-54
2022/12/07 08:54:38;;;;;;;8.50;2.80;;;;;;;5.56;100.00;100368.84;5030754;28;20452;-54
2022/12/07 08:57:06;;;;;;;5.77;2.10;;;;;;;5.59;100.00;100365.31;5016992;28;20575;-55
2022/12/07 08:59:35;;;;;;;2.07;1.53;;;;;;;5.65;100.00;100375.84;5022044;28;20561;-55
2022/12/07 09:02:02;;;;;;;3.83;3.07;;;;;;;5.76;100.00;100370.50;5023683;28;20458;-54
2022/12/07 09:04:29;;;;;;;1.70;1.60;;;;;;;5.88;100.00;100367.72;5019840;28;20495;-55
2022/12/07 09:06:55;;;;;;;2.63;2.43;;;;;;;5.91;100.00;100362.50;5016924;28;20963;-54
2022/12/07 09:09:22;;;;;;;4.33;2.50;;;;;;;6.12;100.00;100366.69;5020536;28;21219;-55
2022/12/07 09:11:48;;;;;;;2.43;2.30;;;;;;;6.24;100.00;100363.94;5023418;28;20476;-54
2022/12/07 09:14:15;;;;;;;5.57;2.70;;;;;;;6.20;100.00;100370.13;5019874;28;20467;-55
2022/12/07 09:16:41;;;;;;;1.83;1.60;;;;;;;6.26;100.00;100363.91;5003547;28;20495;-55
2022/12/07 09:19:08;;;;;;;2.40;2.30;;;;;;;6.43;100.00;100361.97;5020583;28;20981;-55
2022/12/07 09:21:34;;;;;;;2.50;1.27;;;;;;;6.38;100.00;100367.31;5023359;28;20961;-55
2022/12/07 09:24:01;;;;;;;1.70;1.60;;;;;;;6.55;100.00;100361.84;5019835;28;20841;-54
2022/12/07 09:26:27;;;;;;;1.83;1.73;;;;;;;6.34;100.00;100364.72;5016917;28;20447;-54
2022/12/07 09:28:54;;;;;;;3.83;1.77;;;;;;;6.43;100.00;100368.13;5020426;28;20476;-54
2022/12/07 09:31:20;;;;;;;3.50;3.03;;;;;;;6.37;100.00;100369.97;5023593;28;20799;-55
2022/12/07 09:33:55;;;;;;;1.47;1.37;;;;;;;6.41;100.00;100369.91;5020114;28;20458;-55
2022/12/07 09:36:22;;;;;;;2.63;1.43;;;;;;;6.41;100.00;100369.03;5016215;28;20976;-54
2022/12/07 09:38:48;;;;;;;1.10;1.00;;;;;;;6.47;100.00;100366.34;5001365;28;20480;-54
2022/12/07 09:41:15;;;;;;;1.03;0.80;;;;;;;6.49;100.00;100369.84;5029537;28;20451;-55
2022/12/07 09:43:42;;;;;;;1.53;1.20;;;;;;;6.43;100.00;100365.47;5018353;28;20547;-55
2022/12/07 09:46:14;;;;;;;1.07;0.80;;;;;;;6.66;100.00;100365.22;5025515;28;20783;-54
2022/12/07 09:48:42;;;;;;;2.50;2.30;;;;;;;6.69;100.00;100365.19;5017199;28;20472;-55
2022/12/07 09:51:13;;;;;;;2.87;2.77;;;;;;;6.62;100.00;100366.16;5023598;28;20989;-55
2022/12/07 09:53:48;;;;;;;0.73;0.73;;;;;;;6.76;100.00;100371.28;5023103;28;20451;-54
2022/12/07 09:56:17;;;;;;;1.90;1.47;;;;;;;6.65;100.00;100366.13;5017494;28;20502;-53
2022/12/07 09:58:44;;;;;;;2.80;2.60;;;;;;;6.57;100.00;100359.19;5016195;28;20476;-54
2022/12/07 10:01:18;;;;;;;1.70;1.17;;;;;;;6.71;100.00;100362.53;5020733;28;20463;-54
2022/12/07 10:03:50;;;;;;;0.80;0.80;;;;;;;6.61;100.00;100361.78;5021995;28;20459;-54
2022/12/07 10:06:16;;;;;;;0.50;0.50;;;;;;;6.83;100.00;100357.09;5009835;28;20472;-54
2022/12/07 10:08:43;;;;;;;0.80;0.80;;;;;;;6.95;99.78;100356.94;5022833;28;20472;-54
2022/12/07 10:11:11;;;;;;;0.50;0.40;;;;;;;6.93;99.31;100352.59;5020615;28;20455;-54
2022/12/07 10:13:42;;;;;;;1.37;1.27;;;;;;;6.90;99.15;100355.28;5016132;28;21135;-55
2022/12/07 10:16:41;;;;;;;0.30;0.30;;;;;;;7.13;97.99;100345.28;5019744;28;20492;-55
2022/12/07 10:19:21;;;;;;;0.93;0.40;;;;;;;7.05;99.43;100347.16;5012855;28;20562;-54
2022/12/07 10:22:05;;;;;;;0.90;0.73;;;;;;;7.36;97.75;100337.88;5015609;28;20501;-55
2022/12/07 10:24:32;;;;;;;3.53;0.90;;;;;;;7.19;96.82;100339.91;5015754;28;20991;-55
2022/12/07 10:26:59;;;;;;;4.53;0.97;;;;;;;7.17;97.40;100331.13;5021407;28;20956;-54
2022/12/07 10:29:38;;;;;;;1.40;1.20;;;;;;;7.10;98.54;100327.69;5004811;28;20488;-54
2022/12/07 10:32:30;;;;;;;4.03;0.57;;;;;;;7.00;97.05;100319.91;5018858;28;20447;-54
2022/12/07 10:35:18;;;;;;;1.57;0.77;;;;;;;7.01;97.87;100311.09;5015548;28;20503;-54
2022/12/07 10:37:45;;;;;;;0.40;0.40;;;;;;;7.32;97.10;100312.38;5015333;28;20454;-55
2022/12/07 10:40:35;;;;;;;0.40;0.30;;;;;;;7.33;97.26;100311.50;5028908;28;20444;-54
2022/12/07 10:43:12;;;;;;;1.50;0.73;;;;;;;7.20;96.61;100312.56;5022532;28;20522;-54
2022/12/07 10:45:48;;;;;;;0.90;0.40;;;;;;;7.22;97.49;100307.25;5021922;28;20456;-55
2022/12/07 10:48:43;;;;;;;0.30;0.30;;;;;;;7.70;96.02;100305.63;5019693;28;20478;-54
2022/12/07 10:51:54;;;;;;;0.80;0.80;;;;;;;7.65;95.43;100302.16;5015890;28;20447;-54
2022/12/07 10:54:48;;;;;;;3.77;1.23;;;;;;;7.46;96.83;100300.72;4999443;28;20463;-55
2022/12/07 10:57:36;;;;;;;1.20;0.90;;;;;;;7.29;97.76;100298.34;5015168;28;20491;-55
2022/12/07 11:00:24;;;;;;;0.90;0.80;;;;;;;7.43;97.03;100293.72;5015972;28;20988;-54
2022/12/07 11:03:21;;;;;;;0.30;0.30;;;;;;;7.51;96.90;100297.09;5017765;28;20454;-55
2022/12/07 11:06:12;;;;;;;1.27;0.60;;;;;;;7.74;95.83;100291.44;5015032;28;20457;-54
2022/12/07 11:08:45;;;;;;;0.47;0.30;;;;;;;7.55;94.98;100293.53;5015495;28;20471;-55
2022/12/07 11:11:30;;;;;;;0.50;0.50;;;;;;;7.76;95.72;100291.41;5018266;28;20966;-54
2022/12/07 11:14:01;;;;;;;0.90;0.57;;;;;;;7.76;95.38;100276.41;5015577;28;20530;-54
2022/12/07 11:16:49;;;;;;;5.03;0.90;;;;;;;7.83;95.19;100288.66;5021992;28;21077;-55
2022/12/07 11:19:35;;;;;;;1.10;0.60;;;;;;;7.72;95.01;100278.25;5021399;28;21056;-55
2022/12/07 11:22:15;;;;;;;59.10;2.10;;;;;;;7.61;93.94;100274.91;5019052;28;20455;-55
2022/12/07 11:24:53;;;;;;;0.57;0.57;;;;;;;7.64;94.39;100279.25;5018631;28;20471;-55
2022/12/07 11:27:31;;;;;;;0.50;0.40;;;;;;;7.87;94.27;100270.94;5021958;28;20449;-54
2022/12/07 11:30:03;;;;;;;0.47;0.40;;;;;;;7.97;93.29;100268.09;5025313;28;20449;-54
2022/12/07 11:32:50;;;;;;;0.60;0.40;;;;;;;7.95;92.38;100269.03;5024755;28;20486;-54
2022/12/07 11:35:30;;;;;;;0.87;0.87;;;;;;;8.13;90.48;100267.81;5022797;28;20452;-55
2022/12/07 11:38:20;;;;;;;0.63;0.53;;;;;;;8.22;90.78;100271.16;5024841;28;20993;-55
2022/12/07 11:41:12;;;;;;;0.70;0.70;;;;;;;7.96;91.94;100268.13;5042459;28;20447;-54
2022/12/07 11:43:54;;;;;;;0.50;0.40;;;;;;;8.04;92.11;100258.25;5020629;28;20874;-55
2022/12/07 11:46:25;;;;;;;0.87;0.83;;;;;;;8.16;93.28;100254.50;5029579;28;20443;-55
2022/12/07 11:49:12;;;;;;;0.70;0.40;;;;;;;8.10;93.16;100252.00;5018313;28;20523;-54